Maersk Gateshead — OWNT2 — position and weather

sailwx.info

Track history (hours):
 
Tides and Currents Weather Stations Pressure Air Temp Water Temp Dewpoint Dewpoint Depression Visibility Wind Speed Wind Dir Waves Ship Positions

Maersk Gateshead

Last reported at 2018-Jun-13 08:45 UTC. Time now 2018-Jun-19 17:52 UTC.
Position N 31°22' E 123°05'.

Length 292 m; draft 10.3 m.

Type: Ship (hazmat cat A). MMSI: 219587000.

Date/timePositionNaut miles runAvg speedWind from/ knotsBaromVisibWave heightAir tempDewpointWater temp
2018-Jun-13 08:45N 31°22' E 123°05'310.9
2018-Jun-13 08:30N 31°25' E 123°05'611.4
2018-Jun-13 08:00N 31°31' E 123°04'611.4
2018-Jun-13 07:30N 31°36' E 123°03'611.7
2018-Jun-13 06:59N 31°42' E 123°02'1212.0
2018-Jun-13 06:00N 31°54' E 122°58'1711.0
2018-Jun-13 04:26N 32°11' E 122°59'25810.4
2018-Jun-12 03:39N 35°58' E 120°32'311.5
2018-Jun-12 03:24N 35°59' E 120°28'511.5
2018-Jun-12 02:57N 36°01' E 120°22'610.4
2018-Jun-12 02:23N 36°02' E 120°15'2 4.2
2018-Jun-12 01:53N 36°01' E 120°13'0 0.0
2018-Jun-12 01:20N 36°01' E 120°13'0 0.0
2018-Jun-12 00:57N 36°01' E 120°13'0 0.0
2018-Jun-11 23:58N 36°01' E 120°13'0 0.0
2018-Jun-11 23:05N 36°01' E 120°13'0 0.0
2018-Jun-11 22:46N 36°01' E 120°13'0 0.0
2018-Jun-11 22:28N 36°01' E 120°13'0 0.0
2018-Jun-11 11:35N 36°01' E 120°13'0 0.0
2018-Jun-11 11:18N 36°01' E 120°13'14 9.0
2018-Jun-11 09:47N 35°60' E 120°30'  
2018-Jun-08 14:39N 37°25' E 122°47'212.1
2018-Jun-08 14:30N 37°27' E 122°46'1712.3
2018-Jun-08 13:07N 37°38' E 122°30'312.6
2018-Jun-08 12:55N 37°40' E 122°28'512.5
2018-Jun-08 12:30N 37°43' E 122°22'612.5
2018-Jun-08 12:00N 37°47' E 122°16'612.5
2018-Jun-08 11:30N 37°50' E 122°09'612.2
2018-Jun-08 10:58N 37°53' E 122°02'612.2
2018-Jun-08 10:27N 37°57' E 121°55'511.8
2018-Jun-08 10:00N 37°60' E 121°50'611.9
2018-Jun-08 09:30N 38°04' E 121°44'611.8
2018-Jun-08 09:00N 38°07' E 121°38'612.0
2018-Jun-08 08:30N 38°11' E 121°32'611.9
2018-Jun-08 08:00N 38°14' E 121°26'612.2
2018-Jun-08 07:30N 38°18' E 121°20'612.0
2018-Jun-08 06:59N 38°22' E 121°14'611.8
2018-Jun-08 06:30N 38°26' E 121°08'1810.1
2018-Jun-08 04:43N 38°33' E 120°47'311.8
2018-Jun-08 04:28N 38°34' E 120°43'812.6
2018-Jun-08 03:50N 38°35' E 120°33'512.5
2018-Jun-08 03:28N 38°36' E 120°28'612.3
2018-Jun-08 03:00N 38°36' E 120°20'612.4
2018-Jun-08 02:30N 38°37' E 120°12'612.1
2018-Jun-08 02:00N 38°38' E 120°05'711.9
2018-Jun-08 01:24N 38°40' E 119°56'4211.6
2018-Jun-07 21:45N 38°45' E 119°02'311.7
2018-Jun-07 21:28N 38°46' E 118°58'3212.2
2018-Jun-07 18:51N 38°50' E 118°17'412.3
2018-Jun-07 18:30N 38°51' E 118°12'611.1
2018-Jun-07 18:00N 38°55' E 118°06'84 3.5
2018-Jun-06 17:40N 38°45' E 119°53'319.4
2018-Jun-06 17:29N 38°45' E 119°58'5515.4
2018-Jun-06 13:56N 38°32' E 121°06'1217.7
2018-Jun-06 13:15N 38°26' E 121°19'1120.1
2018-Jun-06 12:42N 38°21' E 121°31'520.4
2018-Jun-06 12:28N 38°18' E 121°37'920.4
2018-Jun-06 12:00N 38°13' E 121°47'1020.4
2018-Jun-06 11:30N 38°09' E 121°59'1020.2
2018-Jun-06 11:01N 38°03' E 122°09'1020.4
2018-Jun-06 10:30N 37°58' E 122°20'1120.0
2018-Jun-06 09:57N 37°52' E 122°33'919.6
2018-Jun-06 09:30N 37°48' E 122°42'358 7.2
2018-Jun-04 07:47N 35°02' E 129°16'2 6.8
2018-Jun-04 07:28N 35°02' E 129°18'  
Track history (hours):
 
Tides and Currents Weather Stations Pressure Air Temp Water Temp Dewpoint Dewpoint Depression Visibility Wind Speed Wind Dir Waves Ship Positions

Maersk Gateshead

Last reported at 2018-Jun-13 08:45 UTC. Time now 2018-Jun-19 17:52 UTC.
Position N 31°22' E 123°05'.

Length 292 m; draft 10.3 m.

Type: Ship (hazmat cat A). MMSI: 219587000.

Date/timePositionNaut miles runAvg speedWind from/ knotsBaromVisibWave heightAir tempDewpointWater temp
2018-Jun-13 08:45N 31°22' E 123°05'310.9
2018-Jun-13 08:30N 31°25' E 123°05'611.4
2018-Jun-13 08:00N 31°31' E 123°04'611.4
2018-Jun-13 07:30N 31°36' E 123°03'611.7
2018-Jun-13 06:59N 31°42' E 123°02'1212.0
2018-Jun-13 06:00N 31°54' E 122°58'1711.0
2018-Jun-13 04:26N 32°11' E 122°59'25810.4
2018-Jun-12 03:39N 35°58' E 120°32'311.5
2018-Jun-12 03:24N 35°59' E 120°28'511.5
2018-Jun-12 02:57N 36°01' E 120°22'610.4
2018-Jun-12 02:23N 36°02' E 120°15'2 4.2
2018-Jun-12 01:53N 36°01' E 120°13'0 0.0
2018-Jun-12 01:20N 36°01' E 120°13'0 0.0
2018-Jun-12 00:57N 36°01' E 120°13'0 0.0
2018-Jun-11 23:58N 36°01' E 120°13'0 0.0
2018-Jun-11 23:05N 36°01' E 120°13'0 0.0
2018-Jun-11 22:46N 36°01' E 120°13'0 0.0
2018-Jun-11 22:28N 36°01' E 120°13'0 0.0
2018-Jun-11 11:35N 36°01' E 120°13'0 0.0
2018-Jun-11 11:18N 36°01' E 120°13'14 9.0
2018-Jun-11 09:47N 35°60' E 120°30'  
2018-Jun-08 14:39N 37°25' E 122°47'212.1
2018-Jun-08 14:30N 37°27' E 122°46'1712.3
2018-Jun-08 13:07N 37°38' E 122°30'312.6
2018-Jun-08 12:55N 37°40' E 122°28'512.5
2018-Jun-08 12:30N 37°43' E 122°22'612.5
2018-Jun-08 12:00N 37°47' E 122°16'612.5
2018-Jun-08 11:30N 37°50' E 122°09'612.2
2018-Jun-08 10:58N 37°53' E 122°02'612.2
2018-Jun-08 10:27N 37°57' E 121°55'511.8
2018-Jun-08 10:00N 37°60' E 121°50'611.9
2018-Jun-08 09:30N 38°04' E 121°44'611.8
2018-Jun-08 09:00N 38°07' E 121°38'612.0
2018-Jun-08 08:30N 38°11' E 121°32'611.9
2018-Jun-08 08:00N 38°14' E 121°26'612.2
2018-Jun-08 07:30N 38°18' E 121°20'612.0
2018-Jun-08 06:59N 38°22' E 121°14'611.8
2018-Jun-08 06:30N 38°26' E 121°08'1810.1
2018-Jun-08 04:43N 38°33' E 120°47'311.8
2018-Jun-08 04:28N 38°34' E 120°43'812.6
2018-Jun-08 03:50N 38°35' E 120°33'512.5
2018-Jun-08 03:28N 38°36' E 120°28'612.3
2018-Jun-08 03:00N 38°36' E 120°20'612.4
2018-Jun-08 02:30N 38°37' E 120°12'612.1
2018-Jun-08 02:00N 38°38' E 120°05'711.9
2018-Jun-08 01:24N 38°40' E 119°56'4211.6
2018-Jun-07 21:45N 38°45' E 119°02'311.7
2018-Jun-07 21:28N 38°46' E 118°58'3212.2
2018-Jun-07 18:51N 38°50' E 118°17'412.3
2018-Jun-07 18:30N 38°51' E 118°12'611.1
2018-Jun-07 18:00N 38°55' E 118°06'84 3.5
2018-Jun-06 17:40N 38°45' E 119°53'319.4
2018-Jun-06 17:29N 38°45' E 119°58'5515.4
2018-Jun-06 13:56N 38°32' E 121°06'1217.7
2018-Jun-06 13:15N 38°26' E 121°19'1120.1
2018-Jun-06 12:42N 38°21' E 121°31'520.4
2018-Jun-06 12:28N 38°18' E 121°37'920.4
2018-Jun-06 12:00N 38°13' E 121°47'1020.4
2018-Jun-06 11:30N 38°09' E 121°59'1020.2
2018-Jun-06 11:01N 38°03' E 122°09'1020.4
2018-Jun-06 10:30N 37°58' E 122°20'1120.0
2018-Jun-06 09:57N 37°52' E 122°33'919.6
2018-Jun-06 09:30N 37°48' E 122°42'358 7.2
2018-Jun-04 07:47N 35°02' E 129°16'2 6.8
2018-Jun-04 07:28N 35°02' E 129°18'  

Dump ship's entire track history